Heart's Content, Canada
Current Conditions -  °F | °C
As of 1:00 AM on Monday 24 Nov 2014 (Local Time) from CYYT Reporting Station
Few Clouds Few Clouds  
Wind Chill: 20°   Ceiling: Unl
Heat Index: 32°   Visibility: 15mi
Dew Point: 23°   Wind: 21mph
Humidity: 69%   Direction: 300°WNW
Pressure: 29.98"   Gusts: 29mph
Location:  47.87°N, 53.37°W
Report Text: CYYT 240400Z 30018G25KT 15SM FEW035 M00/M05 A2998 RMK SC1 SLP159
Loading
Personal Weather Stations






























Interactive Weather Map New forecast layout! Learn more

10-Day Weather Forecast

Advertisements
Track Severe Weather on mobile